Time;durP1;ratioP1;P1;durP2;ratioP2;P2;SDS_P1;SDS_P2;PMS_P1;PMS_P2;Temp;Humidity;BMP_temperature;BMP_pressure;BME280_temperature;BME280_humidity;BME280_pressure;Samples;Min_cycle;Max_cycle;Signal;HPM_P1;HPM_P2
2023/12/28 00:05:09;;;;;;;3.07;2.87;;;8.20;99.90;;;;;;5008971;28;20463;-80
2023/12/28 00:07:57;;;;;;;5.13;2.97;;;8.10;99.90;;;;;;5019364;28;21074;-80
2023/12/28 00:10:37;;;;;;;2.80;2.60;;;8.00;99.90;;;;;;5019840;28;20470;-80
2023/12/28 00:13:20;;;;;;;2.90;2.70;;;8.30;99.90;;;;;;5019356;28;20538;-80
2023/12/28 00:15:48;;;;;;;3.00;2.80;;;8.60;99.90;;;;;;5019295;28;20457;-83
2023/12/28 00:18:39;;;;;;;3.00;2.80;;;8.80;99.90;;;;;;5018774;28;20456;-79
2023/12/28 00:21:35;;;;;;;3.03;2.63;;;8.30;99.90;;;;;;5010717;28;20471;-80
2023/12/28 00:24:22;;;;;;;3.00;2.80;;;8.50;99.90;;;;;;5011088;28;20522;-78
2023/12/28 00:27:04;;;;;;;2.97;2.67;;;8.40;99.90;;;;;;5017611;28;20869;-79
2023/12/28 00:29:38;;;;;;;2.73;2.53;;;8.50;99.90;;;;;;5018483;28;20474;-80
2023/12/28 00:32:17;;;;;;;2.50;2.40;;;8.10;99.90;;;;;;5018103;28;20474;-80
2023/12/28 00:35:18;;;;;;;2.70;2.50;;;8.10;99.90;;;;;;5017860;28;20451;-80
2023/12/28 00:37:54;;;;;;;3.40;3.20;;;8.10;99.90;;;;;;5010030;28;20518;-80
2023/12/28 00:40:46;;;;;;;2.97;2.77;;;8.00;99.90;;;;;;5016939;28;20493;-80
2023/12/28 00:43:20;;;;;;;2.90;2.60;;;8.00;99.90;;;;;;5016359;28;20622;-79
2023/12/28 00:46:02;;;;;;;2.80;2.60;;;8.00;99.90;;;;;;5017739;28;20464;-80
2023/12/28 00:49:01;;;;;;;2.47;2.37;;;7.90;99.90;;;;;;5018341;28;20460;-78
2023/12/28 00:51:44;;;;;;;2.40;2.20;;;7.90;99.90;;;;;;5013635;28;20499;-79
2023/12/28 00:57:40;;;;;;;3.00;2.80;;;8.20;99.90;;;;;;5018012;28;20428;-81
2023/12/28 01:00:19;;;;;;;2.90;2.70;;;8.30;99.90;;;;;;5018628;28;20482;-79
2023/12/28 01:03:20;;;;;;;2.90;2.70;;;8.40;99.90;;;;;;5018736;28;20490;-79
2023/12/28 01:05:57;;;;;;;2.83;2.63;;;8.60;99.90;;;;;;5018423;28;20458;-79
2023/12/28 01:08:45;;;;;;;3.00;2.80;;;8.30;99.90;;;;;;5018495;28;20458;-80
2023/12/28 01:11:37;;;;;;;3.40;3.10;;;8.30;99.90;;;;;;5018553;28;20538;-79
2023/12/28 01:14:22;;;;;;;3.20;2.60;;;8.00;99.90;;;;;;5027433;28;20450;-80
2023/12/28 01:17:15;;;;;;;3.30;3.00;;;8.30;99.90;;;;;;5018880;28;20451;-79
2023/12/28 01:19:47;;;;;;;3.00;2.80;;;8.40;99.90;;;;;;5019321;28;20463;-80
2023/12/28 01:22:24;;;;;;;3.03;2.80;;;8.60;99.90;;;;;;5029291;28;20479;-80
2023/12/28 01:25:15;;;;;;;3.10;2.83;;;8.70;99.90;;;;;;5027267;28;20444;-80
2023/12/28 01:28:06;;;;;;;2.50;2.37;;;8.70;99.90;;;;;;5026264;28;20474;-79
2023/12/28 01:30:41;;;;;;;2.70;2.50;;;8.60;99.90;;;;;;5026834;28;20470;-80
2023/12/28 01:33:16;;;;;;;3.00;2.80;;;8.30;99.90;;;;;;5020776;28;20532;-80
2023/12/28 01:35:50;;;;;;;2.53;2.43;;;8.60;99.90;;;;;;5036014;28;20443;-79
2023/12/28 01:38:23;;;;;;;3.13;2.93;;;8.60;99.90;;;;;;5034353;28;20447;-78
2023/12/28 01:41:02;;;;;;;3.20;3.00;;;8.60;99.90;;;;;;5040175;28;20518;-79
2023/12/28 01:46:31;;;;;;;3.53;3.23;;;8.70;99.90;;;;;;5014701;28;20454;-79
2023/12/28 01:49:11;;;;;;;3.20;3.00;;;8.60;99.90;;;;;;5042929;28;20454;-80
2023/12/28 01:51:58;;;;;;;2.90;2.80;;;8.60;99.90;;;;;;5041652;28;20476;-82
2023/12/28 01:54:48;;;;;;;2.63;2.43;;;8.60;99.90;;;;;;5044292;28;20518;-80
2023/12/28 01:57:26;;;;;;;2.80;2.60;;;8.60;99.90;;;;;;5044083;28;20442;-79
2023/12/28 02:00:03;;;;;;;2.80;2.60;;;8.60;99.90;;;;;;5037656;28;20936;-80
2023/12/28 02:02:39;;;;;;;2.70;2.50;;;8.60;99.90;;;;;;5025296;28;20511;-81
2023/12/28 02:05:11;;;;;;;3.23;2.90;;;8.60;99.90;;;;;;5029576;28;20524;-83
2023/12/28 02:07:42;;;;;;;3.70;2.97;;;8.60;99.90;;;;;;5028821;28;20478;-80
2023/12/28 02:10:18;;;;;;;3.00;2.80;;;8.50;99.90;;;;;;5036167;28;20469;-80
2023/12/28 02:12:55;;;;;;;2.73;2.53;;;8.50;99.90;;;;;;5032465;28;20451;-80
2023/12/28 02:15:28;;;;;;;3.03;2.73;;;8.80;99.90;;;;;;5032785;28;20477;-80
2023/12/28 02:18:13;;;;;;;2.77;2.57;;;8.80;99.90;;;;;;5029740;28;20447;-79
2023/12/28 02:20:50;;;;;;;3.40;2.70;;;8.90;99.90;;;;;;5027446;28;20462;-80
2023/12/28 02:23:25;;;;;;;3.90;3.00;;;8.70;99.90;;;;;;5029675;28;20475;-79
2023/12/28 02:26:00;;;;;;;3.03;2.83;;;8.70;99.90;;;;;;5029615;28;20447;-79
2023/12/28 02:28:29;;;;;;;3.00;2.70;;;8.80;99.90;;;;;;5031372;28;20548;-78
2023/12/28 02:31:07;;;;;;;2.87;2.70;;;8.70;99.90;;;;;;5026663;28;21204;-79
2023/12/28 02:33:53;;;;;;;2.80;2.60;;;8.60;99.90;;;;;;5024318;28;20450;-78
2023/12/28 02:36:28;;;;;;;2.80;2.70;;;8.60;99.90;;;;;;5025352;28;20915;-79
2023/12/28 02:39:03;;;;;;;3.10;2.90;;;8.60;99.90;;;;;;5024189;28;20879;-79
2023/12/28 02:41:36;;;;;;;3.03;2.83;;;8.60;99.90;;;;;;5026707;28;20538;-80
2023/12/28 02:44:07;;;;;;;3.00;2.80;;;8.80;99.90;;;;;;5026181;28;20468;-79
2023/12/28 02:46:37;;;;;;;3.40;3.10;;;8.50;99.90;;;;;;5023785;28;20451;-79
2023/12/28 02:49:13;;;;;;;2.73;2.60;;;8.50;99.90;;;;;;5024953;28;20460;-81
2023/12/28 02:51:47;;;;;;;2.80;2.60;;;8.50;99.90;;;;;;5025720;28;21004;-81
2023/12/28 02:54:23;;;;;;;3.73;3.13;;;8.50;99.90;;;;;;5027456;28;20451;-80
2023/12/28 02:56:54;;;;;;;4.80;2.80;;;8.50;99.90;;;;;;5024739;28;20505;-79
2023/12/28 02:59:22;;;;;;;2.90;2.70;;;8.40;99.90;;;;;;5023215;28;20459;-80
2023/12/28 03:01:53;;;;;;;2.70;2.50;;;8.40;99.90;;;;;;5023473;28;20470;-79
2023/12/28 03:04:29;;;;;;;2.90;2.70;;;8.40;99.90;;;;;;5023828;28;20467;-80
2023/12/28 03:06:58;;;;;;;3.33;3.07;;;8.40;99.90;;;;;;5022157;28;20501;-79
2023/12/28 03:09:27;;;;;;;3.90;3.60;;;8.30;99.90;;;;;;5021592;28;20457;-79
2023/12/28 03:12:15;;;;;;;3.37;3.10;;;8.20;99.90;;;;;;5022250;28;20479;-78
2023/12/28 03:14:51;;;;;;;2.83;2.67;;;8.10;99.90;;;;;;5021928;28;20447;-80
2023/12/28 03:17:28;;;;;;;3.10;2.80;;;8.00;99.90;;;;;;5021717;28;20471;-80
2023/12/28 03:19:57;;;;;;;3.80;3.43;;;8.00;99.90;;;;;;5025972;28;20485;-79
2023/12/28 03:22:31;;;;;;;3.30;3.00;;;7.90;99.90;;;;;;5025965;28;20478;-79
2023/12/28 03:25:03;;;;;;;3.53;3.23;;;7.90;99.90;;;;;;5025223;28;20485;-81
2023/12/28 03:27:36;;;;;;;3.10;2.90;;;7.90;99.90;;;;;;5023404;28;20466;-80
2023/12/28 03:33:07;;;;;;;3.93;3.63;;;7.50;99.90;;;;;;5018012;28;20431;-79
2023/12/28 03:35:35;;;;;;;3.00;2.80;;;7.40;99.90;;;;;;5017187;28;20451;-80
2023/12/28 03:38:15;;;;;;;3.57;3.37;;;7.60;99.90;;;;;;5016601;28;20474;-80
2023/12/28 03:40:46;;;;;;;7.27;3.27;;;7.60;99.90;;;;;;5016448;28;20505;-82
2023/12/28 03:43:24;;;;;;;3.53;3.23;;;7.50;99.90;;;;;;5015898;28;20446;-78
2023/12/28 03:45:56;;;;;;;3.00;2.80;;;7.50;99.90;;;;;;5016301;28;20968;-79
2023/12/28 03:48:27;;;;;;;3.53;3.23;;;7.50;99.90;;;;;;5015838;28;20538;-79
2023/12/28 03:50:55;;;;;;;3.43;3.13;;;7.40;99.90;;;;;;5016936;28;20468;-80
2023/12/28 03:53:24;;;;;;;5.10;3.50;;;7.40;99.90;;;;;;5016688;28;20459;-80
2023/12/28 03:55:52;;;;;;;3.30;3.10;;;7.40;99.90;;;;;;5017727;28;20462;-79
2023/12/28 03:58:29;;;;;;;3.13;2.93;;;7.60;99.90;;;;;;5017788;28;20455;-79
2023/12/28 04:01:00;;;;;;;3.37;3.17;;;7.60;99.90;;;;;;5017368;28;20502;-79
2023/12/28 04:03:28;;;;;;;2.90;2.70;;;7.30;99.90;;;;;;5017115;28;20479;-81
2023/12/28 04:05:55;;;;;;;3.40;3.17;;;7.30;99.90;;;;;;5017797;28;20452;-79
2023/12/28 04:08:28;;;;;;;2.97;2.77;;;7.50;99.90;;;;;;5018334;28;20451;-79
2023/12/28 04:10:56;;;;;;;2.60;2.40;;;7.20;99.90;;;;;;5018978;28;21007;-79
2023/12/28 04:13:26;;;;;;;2.57;2.43;;;7.40;99.90;;;;;;5021900;28;20438;-78
2023/12/28 04:15:57;;;;;;;2.40;2.30;;;7.50;99.90;;;;;;5019098;28;20457;-79
2023/12/28 04:18:25;;;;;;;3.03;2.57;;;7.70;99.90;;;;;;5020549;28;20448;-79
2023/12/28 04:20:58;;;;;;;2.37;2.27;;;7.80;99.90;;;;;;5028424;28;20450;-79
2023/12/28 04:23:27;;;;;;;3.07;2.80;;;7.90;99.90;;;;;;5034087;28;20484;-79
2023/12/28 04:25:59;;;;;;;3.20;2.90;;;7.90;99.90;;;;;;5030482;28;20531;-80
2023/12/28 04:28:31;;;;;;;3.30;3.00;;;7.70;99.90;;;;;;5025821;28;20510;-80
2023/12/28 04:30:59;;;;;;;3.20;3.00;;;7.60;99.90;;;;;;5036208;28;20994;-80
2023/12/28 04:33:27;;;;;;;6.90;3.70;;;7.50;99.90;;;;;;5035288;28;20454;-79
2023/12/28 04:35:58;;;;;;;3.70;3.50;;;7.40;99.90;;;;;;5034571;28;20830;-79
2023/12/28 04:38:28;;;;;;;3.30;3.10;;;7.40;99.90;;;;;;5034378;28;20450;-81
2023/12/28 04:41:00;;;;;;;3.10;2.87;;;7.40;99.90;;;;;;5033082;28;20473;-79
2023/12/28 04:43:31;;;;;;;3.47;3.17;;;7.60;99.90;;;;;;5032917;28;20462;-79
2023/12/28 04:46:07;;;;;;;2.63;2.43;;;8.00;99.90;;;;;;5033069;28;20449;-79
2023/12/28 04:48:38;;;;;;;3.20;2.90;;;7.80;99.90;;;;;;5032708;28;20460;-78
2023/12/28 04:51:07;;;;;;;3.50;3.30;;;7.90;99.90;;;;;;5033041;28;20549;-80
2023/12/28 04:53:47;;;;;;;2.93;2.77;;;8.10;99.90;;;;;;5032982;28;20462;-80
2023/12/28 04:56:23;;;;;;;2.77;2.57;;;8.00;99.90;;;;;;5032949;28;20457;-79
2023/12/28 04:58:53;;;;;;;3.00;2.80;;;8.10;99.90;;;;;;5032665;28;20861;-80
2023/12/28 05:01:22;;;;;;;2.90;2.70;;;8.00;99.90;;;;;;5033409;28;20496;-79
2023/12/28 05:03:55;;;;;;;3.60;3.30;;;8.00;99.90;;;;;;5032274;28;20490;-79
2023/12/28 05:06:23;;;;;;;3.10;2.90;;;8.00;99.90;;;;;;5032702;28;20532;-78
2023/12/28 05:08:53;;;;;;;3.73;3.43;;;8.20;99.90;;;;;;5032211;28;20611;-79
2023/12/28 05:11:24;;;;;;;3.13;2.73;;;8.00;99.90;;;;;;5033258;28;20497;-78
2023/12/28 05:13:54;;;;;;;3.00;2.80;;;8.10;99.90;;;;;;5034193;28;20472;-79
2023/12/28 05:16:24;;;;;;;3.67;3.37;;;8.30;99.90;;;;;;5033933;28;20457;-79
2023/12/28 05:19:02;;;;;;;4.03;3.43;;;8.00;99.90;;;;;;5033373;28;20446;-79
2023/12/28 05:21:34;;;;;;;3.90;2.53;;;8.20;99.90;;;;;;5032798;28;20501;-79
2023/12/28 05:24:02;;;;;;;3.80;3.50;;;8.30;99.90;;;;;;5032808;28;20473;-79
2023/12/28 05:26:31;;;;;;;3.43;2.43;;;8.20;99.90;;;;;;5033561;28;20451;-79
2023/12/28 05:29:03;;;;;;;3.20;2.90;;;8.30;99.90;;;;;;5033525;28;20500;-79
2023/12/28 05:31:46;;;;;;;2.93;2.73;;;8.40;99.90;;;;;;5033212;28;20502;-80
2023/12/28 05:34:15;;;;;;;3.63;2.93;;;8.50;99.90;;;;;;5033188;28;20453;-79
2023/12/28 05:36:47;;;;;;;3.00;2.77;;;8.40;99.90;;;;;;5037110;28;20458;-80
2023/12/28 05:39:23;;;;;;;2.90;2.70;;;8.60;99.90;;;;;;5047099;28;20472;-79
2023/12/28 05:41:59;;;;;;;2.40;2.20;;;8.50;99.90;;;;;;5053056;28;20472;-80
2023/12/28 05:44:31;;;;;;;2.30;2.20;;;8.90;99.90;;;;;;5048497;28;20533;-79
2023/12/28 05:47:06;;;;;;;2.00;1.90;;;8.80;99.90;;;;;;5048815;28;20545;-80
2023/12/28 05:49:34;;;;;;;2.83;2.63;;;8.80;99.90;;;;;;5053227;28;20430;-79
2023/12/28 05:52:14;;;;;;;2.97;2.70;;;8.70;99.90;;;;;;5051484;28;20979;-79
2023/12/28 05:54:55;;;;;;;2.53;2.33;;;8.80;99.90;;;;;;5050323;28;20803;-80
2023/12/28 05:57:30;;;;;;;2.50;2.27;;;8.90;99.90;;;;;;5044132;28;20473;-80
2023/12/28 06:00:09;;;;;;;2.63;2.43;;;8.60;99.90;;;;;;5042896;28;20462;-82
2023/12/28 06:02:51;;;;;;;3.20;2.40;;;8.80;99.90;;;;;;5053500;28;20439;-80
2023/12/28 06:05:19;;;;;;;4.33;2.70;;;8.90;99.90;;;;;;5047333;28;20484;-80
2023/12/28 06:07:49;;;;;;;2.57;2.37;;;9.20;99.90;;;;;;5042138;28;20869;-81
2023/12/28 06:10:19;;;;;;;2.73;2.23;;;9.20;99.90;;;;;;5040383;28;20997;-80
2023/12/28 06:12:50;;;;;;;2.70;2.50;;;9.10;99.90;;;;;;5040433;28;20453;-80
2023/12/28 06:15:19;;;;;;;3.17;2.30;;;9.10;99.90;;;;;;5040270;28;20427;-83
2023/12/28 06:17:47;;;;;;;2.63;2.27;;;9.30;99.90;;;;;;5040191;28;20538;-80
2023/12/28 06:20:17;;;;;;;2.10;1.90;;;8.80;99.90;;;;;;5040059;28;20478;-80
2023/12/28 06:22:52;;;;;;;2.70;2.50;;;9.20;99.90;;;;;;5040886;28;20453;-79
2023/12/28 06:25:20;;;;;;;2.90;2.60;;;9.30;99.90;;;;;;5039260;28;20536;-79
2023/12/28 06:27:50;;;;;;;2.57;2.37;;;9.30;99.90;;;;;;5039576;28;20438;-80
2023/12/28 06:30:25;;;;;;;2.00;1.90;;;9.30;99.90;;;;;;5038749;28;20465;-81
2023/12/28 06:32:58;;;;;;;3.43;2.60;;;9.40;99.90;;;;;;5039363;28;20477;-81
2023/12/28 06:35:31;;;;;;;2.30;2.10;;;9.40;99.90;;;;;;5039979;28;20822;-79
2023/12/28 06:38:04;;;;;;;2.27;2.13;;;9.50;99.90;;;;;;5042603;28;20466;-81
2023/12/28 06:40:50;;;;;;;2.70;2.50;;;9.50;99.90;;;;;;5043126;28;20819;-80
2023/12/28 06:43:28;;;;;;;2.47;2.27;;;9.50;99.90;;;;;;5045767;28;20465;-80
2023/12/28 06:46:02;;;;;;;3.47;2.87;;;9.60;99.90;;;;;;5042982;28;20474;-80
2023/12/28 06:48:52;;;;;;;2.33;2.20;;;9.70;99.90;;;;;;5041697;28;20445;-79
2023/12/28 06:51:21;;;;;;;2.63;2.10;;;9.70;99.90;;;;;;5039296;28;20550;-79
2023/12/28 06:53:59;;;;;;;2.80;2.60;;;9.60;99.90;;;;;;5041081;28;20866;-80
2023/12/28 06:56:28;;;;;;;2.73;2.47;;;9.70;99.90;;;;;;5041970;28;20426;-80
2023/12/28 06:59:11;;;;;;;2.70;2.50;;;9.70;99.90;;;;;;5043995;28;20460;-80
2023/12/28 07:01:48;;;;;;;2.13;1.90;;;9.60;99.90;;;;;;5042339;28;20474;-83
2023/12/28 07:04:25;;;;;;;2.60;2.40;;;9.80;99.90;;;;;;5040197;28;20450;-81
2023/12/28 07:06:56;;;;;;;2.80;2.57;;;9.70;99.90;;;;;;5037517;28;21023;-80
2023/12/28 07:09:28;;;;;;;3.73;3.00;;;10.00;99.90;;;;;;5037236;28;20522;-81
2023/12/28 07:11:59;;;;;;;3.33;2.87;;;9.80;99.90;;;;;;5037171;28;20509;-80
2023/12/28 07:14:31;;;;;;;2.30;2.20;;;9.80;99.90;;;;;;5037687;28;20454;-80
2023/12/28 07:17:11;;;;;;;2.20;2.10;;;9.90;99.90;;;;;;5038919;28;20529;-81
2023/12/28 07:19:54;;;;;;;3.17;2.67;;;9.80;99.90;;;;;;5039729;28;20529;-80
2023/12/28 07:22:29;;;;;;;2.73;2.40;;;9.90;99.90;;;;;;5038672;28;20470;-80
2023/12/28 07:25:06;;;;;;;2.20;2.10;;;9.70;99.90;;;;;;5039450;28;20478;-80
2023/12/28 07:27:38;;;;;;;2.93;2.20;;;9.70;99.90;;;;;;5040278;28;20478;-81
2023/12/28 07:30:16;;;;;;;4.30;2.90;;;10.00;99.90;;;;;;5038122;28;20411;-81
2023/12/28 07:32:46;;;;;;;2.30;2.20;;;10.00;99.90;;;;;;5037187;28;20457;-81
2023/12/28 07:35:19;;;;;;;4.50;3.37;;;9.90;99.90;;;;;;5037535;28;20431;-82
2023/12/28 07:37:50;;;;;;;4.13;3.57;;;10.10;99.90;;;;;;5037101;28;20431;-79
2023/12/28 07:40:19;;;;;;;5.37;3.80;;;9.80;99.90;;;;;;5036846;28;20435;-81
2023/12/28 07:42:57;;;;;;;5.57;3.93;;;9.80;99.90;;;;;;5037721;28;20537;-80
2023/12/28 07:45:25;;;;;;;5.23;3.43;;;9.70;99.90;;;;;;5037480;28;20482;-80
2023/12/28 07:47:55;;;;;;;5.17;4.67;;;9.60;99.90;;;;;;5038116;28;20936;-78
2023/12/28 07:50:38;;;;;;;6.73;4.23;;;9.50;99.90;;;;;;5037889;28;21054;-79
2023/12/28 07:53:06;;;;;;;6.70;4.50;;;9.40;99.90;;;;;;5037148;28;20478;-80
2023/12/28 07:55:39;;;;;;;5.77;4.50;;;9.10;99.90;;;;;;5036729;28;20485;-82
2023/12/28 07:58:12;;;;;;;5.57;4.53;;;9.20;99.90;;;;;;5037540;28;20450;-79
2023/12/28 08:00:50;;;;;;;6.83;4.37;;;9.30;99.90;;;;;;5036913;28;20482;-80
2023/12/28 08:03:29;;;;;;;6.63;4.37;;;9.40;99.90;;;;;;5035542;28;20549;-82
2023/12/28 08:06:01;;;;;;;4.33;4.00;;;9.20;99.90;;;;;;5023093;28;20575;-80
2023/12/28 08:08:37;;;;;;;5.27;4.50;;;9.20;99.90;;;;;;5017632;28;20518;-81
2023/12/28 08:11:10;;;;;;;5.37;4.87;;;9.00;99.90;;;;;;5018113;28;20471;-80
2023/12/28 08:13:46;;;;;;;5.70;5.10;;;9.20;99.90;;;;;;5022848;28;20824;-80
2023/12/28 08:16:16;;;;;;;6.30;5.23;;;9.20;99.90;;;;;;5027063;28;20453;-79
2023/12/28 08:18:49;;;;;;;10.37;7.13;;;9.20;99.90;;;;;;5029314;28;20452;-79
2023/12/28 08:21:27;;;;;;;7.83;7.10;;;9.20;99.90;;;;;;5028104;28;20475;-80
2023/12/28 08:23:58;;;;;;;9.53;8.53;;;9.20;99.90;;;;;;5022546;28;20483;-81
2023/12/28 08:26:26;;;;;;;11.97;6.70;;;9.20;99.90;;;;;;5018617;28;20548;-79
2023/12/28 08:28:57;;;;;;;7.30;6.53;;;9.10;99.90;;;;;;5018283;28;20535;-80
2023/12/28 08:31:27;;;;;;;6.73;5.97;;;9.10;99.90;;;;;;5017555;28;20471;-82
2023/12/28 08:33:56;;;;;;;8.83;5.43;;;9.10;99.90;;;;;;5017249;28;20451;-81
2023/12/28 08:36:24;;;;;;;35.10;30.67;;;9.20;99.90;;;;;;5018864;28;20924;-79
2023/12/28 08:38:58;;;;;;;7.43;6.43;;;9.20;99.90;;;;;;5021232;28;20456;-80
2023/12/28 08:41:48;;;;;;;10.70;5.73;;;9.00;99.90;;;;;;5025883;28;20498;-82
2023/12/28 08:44:20;;;;;;;6.60;5.57;;;9.20;99.90;;;;;;5023437;28;20455;-79
2023/12/28 08:46:49;;;;;;;8.90;5.77;;;9.20;99.90;;;;;;5017766;28;20479;-79
2023/12/28 08:49:29;;;;;;;18.37;6.43;;;9.30;99.90;;;;;;5016211;28;20447;-80
2023/12/28 08:51:58;;;;;;;11.70;6.00;;;9.30;99.90;;;;;;5016346;28;20475;-79
2023/12/28 08:54:27;;;;;;;5.47;4.90;;;9.50;99.90;;;;;;5016599;28;20859;-80
2023/12/28 08:56:58;;;;;;;9.37;5.23;;;9.30;99.90;;;;;;5017249;28;20444;-81
2023/12/28 08:59:28;;;;;;;6.70;5.40;;;9.30;99.90;;;;;;5016299;28;20477;-81
2023/12/28 09:05:00;;;;;;;5.13;4.20;;;9.40;99.90;;;;;;5015433;28;20438;-81
2023/12/28 09:07:42;;;;;;;7.20;5.83;;;9.40;99.90;;;;;;5015679;28;20431;-79
2023/12/28 09:10:20;;;;;;;8.20;4.70;;;9.40;99.90;;;;;;5016204;28;20874;-80
2023/12/28 09:12:51;;;;;;;6.70;4.80;;;9.30;99.90;;;;;;5014467;28;21026;-82
2023/12/28 09:15:19;;;;;;;12.90;10.10;;;9.40;99.90;;;;;;5016701;28;20442;-80
2023/12/28 09:17:50;;;;;;;7.83;6.20;;;9.40;99.90;;;;;;5017172;28;20563;-81
2023/12/28 09:20:20;;;;;;;7.73;4.70;;;9.60;99.90;;;;;;5019132;28;20490;-80
2023/12/28 09:22:53;;;;;;;6.07;5.00;;;9.40;99.90;;;;;;5018260;28;20435;-79
2023/12/28 09:25:20;;;;;;;14.03;5.27;;;9.40;99.90;;;;;;5016248;28;20471;-80
2023/12/28 09:27:54;;;;;;;6.67;5.13;;;9.40;99.90;;;;;;5015498;28;20458;-80
2023/12/28 09:30:26;;;;;;;7.67;5.23;;;9.40;99.90;;;;;;5015682;28;20717;-80
2023/12/28 09:33:03;;;;;;;6.57;4.97;;;9.10;99.90;;;;;;5021872;28;20450;-80
2023/12/28 09:35:37;;;;;;;8.23;6.00;;;9.50;99.90;;;;;;5026183;28;20490;-80
2023/12/28 09:38:08;;;;;;;6.47;5.27;;;9.30;99.90;;;;;;5035337;28;21014;-81
2023/12/28 09:40:43;;;;;;;6.40;5.80;;;9.30;99.90;;;;;;5035204;28;20467;-79
2023/12/28 09:43:26;;;;;;;8.47;5.80;;;9.40;99.90;;;;;;5035472;28;20454;-80
2023/12/28 09:45:59;;;;;;;14.03;5.63;;;9.40;99.90;;;;;;5037228;28;20549;-79
2023/12/28 09:48:34;;;;;;;9.23;6.37;;;9.50;99.90;;;;;;5037522;28;20438;-79
2023/12/28 09:51:08;;;;;;;7.47;6.13;;;9.50;99.90;;;;;;5037986;28;20485;-80
2023/12/28 09:53:43;;;;;;;9.30;7.20;;;9.60;99.90;;;;;;5038088;28;20446;-79
2023/12/28 09:56:21;;;;;;;9.80;7.00;;;9.60;99.90;;;;;;5037221;28;20450;-80
2023/12/28 09:58:57;;;;;;;8.60;6.73;;;9.60;99.90;;;;;;5037481;28;20442;-80
2023/12/28 10:01:40;;;;;;;9.93;7.13;;;9.60;99.90;;;;;;5025535;28;20482;-81
2023/12/28 10:04:28;;;;;;;11.27;8.10;;;9.70;99.90;;;;;;5016445;28;20570;-79
2023/12/28 10:06:59;;;;;;;8.57;7.20;;;9.50;99.90;;;;;;5016350;28;20487;-79
2023/12/28 10:09:34;;;;;;;6.70;6.00;;;10.00;99.90;;;;;;5016247;28;20436;-80
2023/12/28 10:12:08;;;;;;;6.27;5.67;;;9.80;99.90;;;;;;5022381;28;20872;-79
2023/12/28 10:14:41;;;;;;;6.20;4.23;;;9.90;99.90;;;;;;5015955;28;20451;-79
2023/12/28 10:17:17;;;;;;;3.87;3.57;;;10.10;99.90;;;;;;5015881;28;20443;-80
2023/12/28 10:20:03;;;;;;;3.40;3.07;;;10.00;99.90;;;;;;5034428;28;20458;-80
2023/12/28 10:22:33;;;;;;;2.87;2.60;;;10.40;99.90;;;;;;5034682;28;20533;-80
2023/12/28 10:25:06;;;;;;;3.17;2.80;;;10.60;99.90;;;;;;5033629;28;20449;-79
2023/12/28 10:27:43;;;;;;;2.57;2.33;;;10.80;99.90;;;;;;5036132;28;20516;-80
2023/12/28 10:30:20;;;;;;;2.60;2.30;;;10.80;99.90;;;;;;5038029;28;20438;-80
2023/12/28 10:32:56;;;;;;;2.20;2.00;;;10.90;99.90;;;;;;5038728;28;20455;-81
2023/12/28 10:35:41;;;;;;;2.47;2.23;;;11.00;99.90;;;;;;5040579;28;20525;-80
2023/12/28 10:38:18;;;;;;;3.10;2.90;;;11.00;99.90;;;;;;5041145;28;20453;-81
2023/12/28 10:40:50;;;;;;;2.10;2.00;;;11.00;99.90;;;;;;5040803;28;20557;-82
2023/12/28 10:43:27;;;;;;;2.50;2.30;;;11.10;99.90;;;;;;5039682;28;20461;-81
2023/12/28 10:45:58;;;;;;;2.70;2.47;;;11.20;99.90;;;;;;5038964;28;20485;-80
2023/12/28 10:48:35;;;;;;;2.07;1.97;;;11.30;99.90;;;;;;5021356;28;20857;-82
2023/12/28 10:51:23;;;;;;;2.17;2.00;;;11.00;99.90;;;;;;5019770;28;20496;-81
2023/12/28 10:54:06;;;;;;;2.30;2.10;;;11.30;99.90;;;;;;5028850;28;20450;-81
2023/12/28 10:56:50;;;;;;;2.10;2.00;;;11.40;99.90;;;;;;5020241;28;20481;-81
2023/12/28 10:59:39;;;;;;;2.73;2.27;;;11.30;99.90;;;;;;5021557;28;20451;-80
2023/12/28 11:02:13;;;;;;;2.63;2.20;;;11.10;99.90;;;;;;5020447;28;21038;-83
2023/12/28 11:04:48;;;;;;;2.87;2.67;;;11.40;99.90;;;;;;5019511;28;20478;-81
2023/12/28 11:07:24;;;;;;;1.97;1.87;;;11.50;99.90;;;;;;5026738;28;20470;-80
2023/12/28 11:10:01;;;;;;;2.13;2.00;;;11.20;99.90;;;;;;5033221;28;20481;-83
2023/12/28 11:12:42;;;;;;;2.30;2.10;;;11.60;99.90;;;;;;5031239;28;20476;-79
2023/12/28 11:15:17;;;;;;;2.07;1.70;;;11.60;99.90;;;;;;5034822;28;20462;-81
2023/12/28 11:17:44;;;;;;;2.43;2.27;;;11.30;99.90;;;;;;5040555;28;20442;-82
2023/12/28 11:20:20;;;;;;;2.13;1.73;;;11.60;99.90;;;;;;5032538;28;20443;-83
2023/12/28 11:22:54;;;;;;;3.13;2.07;;;11.60;99.90;;;;;;5023709;28;20542;-82
2023/12/28 11:25:34;;;;;;;1.80;1.63;;;11.60;99.90;;;;;;5035122;28;20474;-81
2023/12/28 11:28:23;;;;;;;1.90;1.77;;;11.40;99.90;;;;;;5030388;28;20506;-82
2023/12/28 11:30:58;;;;;;;1.80;1.70;;;11.70;99.90;;;;;;5025419;28;20466;-81
2023/12/28 11:33:47;;;;;;;2.87;1.90;;;11.70;99.90;;;;;;5039140;28;20490;-81
2023/12/28 11:36:38;;;;;;;1.80;1.60;;;11.70;99.90;;;;;;5024091;28;20444;-80
2023/12/28 11:39:14;;;;;;;1.97;1.87;;;11.40;99.90;;;;;;5023462;28;20447;-81
2023/12/28 11:41:54;;;;;;;1.77;1.60;;;11.70;99.90;;;;;;5024524;28;20469;-80
2023/12/28 11:44:32;;;;;;;2.07;1.90;;;11.70;99.90;;;;;;5022865;28;20451;-82
2023/12/28 11:47:25;;;;;;;2.07;1.97;;;11.70;99.90;;;;;;5022995;28;20530;-81
2023/12/28 11:50:10;;;;;;;1.53;1.43;;;11.70;99.90;;;;;;5019803;28;20455;-83
2023/12/28 11:52:57;;;;;;;1.63;1.40;;;11.80;99.90;;;;;;5019704;28;21036;-82
2023/12/28 11:55:34;;;;;;;2.10;1.63;;;11.80;99.90;;;;;;5032387;28;20474;-83
2023/12/28 11:58:06;;;;;;;1.97;1.83;;;11.80;99.90;;;;;;5032327;28;20431;-82
2023/12/28 12:00:47;;;;;;;1.90;1.80;;;11.50;99.90;;;;;;5028824;28;20622;-82
2023/12/28 12:03:25;;;;;;;3.50;2.20;;;11.80;99.90;;;;;;5034389;28;20434;-82
2023/12/28 12:06:01;;;;;;;1.90;1.80;;;11.80;99.90;;;;;;5030291;28;20451;-82
2023/12/28 12:08:39;;;;;;;2.93;2.00;;;11.80;99.90;;;;;;5034398;28;20432;-81
2023/12/28 12:11:15;;;;;;;2.60;2.00;;;11.90;99.90;;;;;;5034978;28;20497;-83
2023/12/28 12:13:47;;;;;;;1.80;1.70;;;11.90;99.90;;;;;;5037463;28;20427;-84
2023/12/28 12:16:39;;;;;;;2.30;2.10;;;11.90;99.90;;;;;;5033102;28;20507;-82
2023/12/28 12:19:17;;;;;;;1.60;1.50;;;11.90;99.90;;;;;;5036459;28;20605;-83
2023/12/28 12:21:56;;;;;;;2.10;2.00;;;11.90;99.90;;;;;;5034666;28;20497;-83
2023/12/28 12:24:28;;;;;;;2.80;2.53;;;11.90;99.90;;;;;;5036305;28;20461;-80
2023/12/28 12:26:56;;;;;;;1.90;1.80;;;11.90;99.90;;;;;;5035614;28;20517;-81
2023/12/28 12:29:37;;;;;;;2.20;1.90;;;11.90;99.90;;;;;;5035951;28;20447;-79
2023/12/28 12:32:15;;;;;;;2.67;2.40;;;12.00;99.90;;;;;;5036484;28;20478;-81
2023/12/28 12:34:47;;;;;;;2.20;1.73;;;12.00;99.90;;;;;;5037499;28;20501;-80
2023/12/28 12:37:17;;;;;;;2.43;2.23;;;12.10;99.90;;;;;;5034902;28;20443;-81
2023/12/28 12:39:47;;;;;;;3.63;2.37;;;12.00;99.90;;;;;;5034555;28;20518;-82
2023/12/28 12:42:22;;;;;;;3.67;3.33;;;12.00;99.90;;;;;;5038489;28;20528;-81
2023/12/28 12:44:57;;;;;;;1.80;1.70;;;12.00;99.90;;;;;;5038697;28;20454;-79
2023/12/28 12:47:48;;;;;;;2.77;2.53;;;12.00;99.90;;;;;;5039603;28;20462;-82
2023/12/28 12:50:19;;;;;;;2.70;1.97;;;12.20;99.90;;;;;;5034165;28;20468;-81
2023/12/28 12:52:48;;;;;;;2.20;2.00;;;12.20;99.90;;;;;;5035112;28;20522;-80
2023/12/28 12:55:23;;;;;;;2.57;2.37;;;12.00;99.90;;;;;;5038378;28;20427;-81
2023/12/28 12:58:04;;;;;;;2.30;1.87;;;12.10;99.90;;;;;;5039362;28;20509;-82
2023/12/28 13:00:49;;;;;;;2.13;2.03;;;12.10;99.90;;;;;;5039231;28;20473;-83
2023/12/28 13:03:32;;;;;;;2.10;1.90;;;12.10;99.90;;;;;;5032182;28;20439;-80
2023/12/28 13:06:03;;;;;;;1.73;1.63;;;12.00;99.90;;;;;;5035669;28;20446;-82
2023/12/28 13:08:36;;;;;;;1.93;1.73;;;12.00;99.90;;;;;;5033909;28;20447;-81
2023/12/28 13:11:16;;;;;;;2.10;2.00;;;12.30;99.90;;;;;;5041510;28;20520;-82
2023/12/28 13:13:49;;;;;;;5.00;1.80;;;12.10;99.90;;;;;;5034781;28;20482;-83
2023/12/28 13:16:22;;;;;;;1.57;1.47;;;11.90;99.90;;;;;;5040217;28;20450;-81
2023/12/28 13:19:12;;;;;;;2.17;2.00;;;12.10;99.90;;;;;;5033589;28;20443;-82
2023/12/28 13:21:52;;;;;;;1.73;1.63;;;12.20;99.90;;;;;;5032308;28;20470;-82
2023/12/28 13:24:21;;;;;;;1.87;1.77;;;12.10;99.90;;;;;;5031585;28;20466;-82
2023/12/28 13:26:52;;;;;;;1.87;1.77;;;12.20;99.90;;;;;;5031620;28;20482;-83
2023/12/28 13:35:42;;;;;;;2.23;1.90;;;12.10;99.90;;;;;;5012608;28;20431;-84
2023/12/28 13:38:31;;;;;;;1.90;1.80;;;12.10;99.90;;;;;;5041845;28;20820;-82
2023/12/28 13:41:26;;;;;;;2.37;2.17;;;12.10;99.90;;;;;;5041106;28;20902;-81
2023/12/28 13:44:00;;;;;;;2.00;1.80;;;12.10;99.90;;;;;;5042473;28;20952;-82
2023/12/28 13:46:30;;;;;;;2.60;2.30;;;12.10;99.90;;;;;;5040815;28;20481;-80
2023/12/28 13:49:03;;;;;;;1.37;1.37;;;12.10;99.90;;;;;;5041253;28;20445;-83
2023/12/28 13:51:53;;;;;;;2.23;1.73;;;12.10;99.90;;;;;;5040700;28;20644;-83
2023/12/28 13:54:30;;;;;;;2.20;2.00;;;12.10;99.90;;;;;;5040598;28;20431;-83
2023/12/28 13:56:59;;;;;;;2.37;2.07;;;12.00;99.90;;;;;;5041256;28;20443;-81
2023/12/28 13:59:29;;;;;;;3.23;2.60;;;12.00;99.90;;;;;;5043403;28;20451;-82